Time;durP1;ratioP1;P1;durP2;ratioP2;P2;SDS_P1;SDS_P2;PMS_P1;PMS_P2;Temp;Humidity;BMP_temperature;BMP_pressure;BME280_temperature;BME280_humidity;BME280_pressure;Samples;Min_cycle;Max_cycle;Signal;HPM_P1;HPM_P2
2023/03/01 00:01:15;;;;;;;24.60;12.63;;;;;;;-1.68;100.00;103338.50;4988063;28;20947;-67
2023/03/01 00:03:42;;;;;;;20.50;12.37;;;;;;;-1.75;100.00;103335.16;4985440;28;20528;-67
2023/03/01 00:06:07;;;;;;;27.93;13.50;;;;;;;-1.81;100.00;103334.47;4986967;28;21155;-68
2023/03/01 00:08:33;;;;;;;24.63;12.80;;;;;;;-1.87;100.00;103328.81;4986790;28;20624;-66
2023/03/01 00:11:06;;;;;;;24.87;11.80;;;;;;;-1.86;100.00;103328.97;4988598;28;20199;-65
2023/03/01 00:13:32;;;;;;;24.37;12.40;;;;;;;-1.86;100.00;103318.94;4984471;28;20220;-67
2023/03/01 00:15:57;;;;;;;20.70;10.70;;;;;;;-1.93;100.00;103315.59;4986827;28;20453;-67
2023/03/01 00:18:23;;;;;;;17.23;10.47;;;;;;;-1.99;100.00;103310.81;4985536;28;20192;-67
2023/03/01 00:20:52;;;;;;;18.83;9.97;;;;;;;-1.99;100.00;103309.91;4986668;28;20319;-66
2023/03/01 00:23:17;;;;;;;16.50;10.03;;;;;;;-1.99;100.00;103317.44;4985107;28;20222;-66
2023/03/01 00:25:43;;;;;;;14.30;8.97;;;;;;;-2.03;100.00;103315.31;4985769;28;20486;-66
2023/03/01 00:28:09;;;;;;;17.47;10.37;;;;;;;-2.06;100.00;103315.88;4984321;28;20199;-68
2023/03/01 00:30:34;;;;;;;13.60;9.00;;;;;;;-1.99;100.00;103317.44;4985020;28;20864;-67
2023/03/01 00:32:59;;;;;;;16.23;9.90;;;;;;;-1.99;100.00;103324.97;4989189;28;20215;-66
2023/03/01 00:35:25;;;;;;;13.00;8.40;;;;;;;-2.01;100.00;103329.84;4983713;28;20661;-64
2023/03/01 00:37:57;;;;;;;16.10;8.43;;;;;;;-2.01;100.00;103328.94;4981563;28;20188;-67
2023/03/01 00:40:23;;;;;;;12.83;7.90;;;;;;;-1.99;100.00;103310.81;4984090;28;20750;-67
2023/03/01 00:42:49;;;;;;;14.97;8.33;;;;;;;-2.02;100.00;103310.47;4981009;28;20466;-68
2023/03/01 00:45:15;;;;;;;12.57;7.70;;;;;;;-2.09;100.00;103320.59;4980794;28;20532;-67
2023/03/01 00:47:40;;;;;;;13.30;8.07;;;;;;;-2.12;100.00;103316.84;4986973;28;20334;-67
2023/03/01 00:50:07;;;;;;;12.80;8.30;;;;;;;-2.22;100.00;103309.94;4983512;28;20199;-66
2023/03/01 00:52:33;;;;;;;13.87;8.07;;;;;;;-2.18;100.00;103308.63;4986105;28;21066;-67
2023/03/01 00:54:58;;;;;;;12.93;8.63;;;;;;;-2.14;100.00;103313.28;4983910;28;20560;-67
2023/03/01 00:57:23;;;;;;;16.37;8.53;;;;;;;-2.17;100.00;103320.44;4969703;28;20211;-67
2023/03/01 00:59:49;;;;;;;12.87;8.17;;;;;;;-2.17;100.00;103322.97;4983542;28;20242;-67
2023/03/01 01:02:15;;;;;;;13.07;8.70;;;;;;;-2.21;100.00;103313.34;4984167;28;20294;-67
2023/03/01 01:04:40;;;;;;;13.40;8.63;;;;;;;-2.27;100.00;103306.03;4982958;28;20210;-68
2023/03/01 01:07:06;;;;;;;13.57;8.47;;;;;;;-2.28;100.00;103296.72;4988692;28;20548;-67
2023/03/01 01:09:31;;;;;;;14.00;8.63;;;;;;;-2.30;100.00;103305.69;4981469;28;20626;-66
2023/03/01 01:11:57;;;;;;;11.93;8.17;;;;;;;-2.33;100.00;103300.34;4988891;28;20238;-68
2023/03/01 01:14:22;;;;;;;12.50;8.23;;;;;;;-2.36;100.00;103310.03;4980538;28;20335;-68
2023/03/01 01:16:48;;;;;;;14.57;8.30;;;;;;;-2.37;100.00;103302.34;4985040;28;20269;-66
2023/03/01 01:19:13;;;;;;;12.17;8.30;;;;;;;-2.38;100.00;103298.97;4987842;28;20266;-67
2023/03/01 01:21:40;;;;;;;14.30;8.50;;;;;;;-2.40;100.00;103296.97;4985751;28;20195;-67
2023/03/01 01:24:06;;;;;;;13.40;8.63;;;;;;;-2.42;100.00;103304.38;4989693;28;20199;-67
2023/03/01 01:26:33;;;;;;;13.70;8.37;;;;;;;-2.43;100.00;103290.00;4988984;28;21404;-68
2023/03/01 01:29:00;;;;;;;14.87;8.37;;;;;;;-2.35;100.00;103295.91;4989837;28;20202;-68
2023/03/01 01:31:27;;;;;;;12.50;8.43;;;;;;;-2.35;100.00;103299.28;4984990;28;20450;-67
2023/03/01 01:33:54;;;;;;;15.40;8.17;;;;;;;-2.38;100.00;103293.94;4984030;28;20504;-67
2023/03/01 01:36:20;;;;;;;15.83;9.07;;;;;;;-2.38;100.00;103295.56;4976742;28;20503;-68
2023/03/01 01:38:46;;;;;;;11.07;8.17;;;;;;;-2.37;100.00;103287.28;4986862;28;20479;-68
2023/03/01 01:41:13;;;;;;;12.50;8.17;;;;;;;-2.44;100.00;103283.22;4982935;28;20534;-67
2023/03/01 01:43:41;;;;;;;12.77;7.97;;;;;;;-2.45;100.00;103278.03;4985721;28;20226;-68
2023/03/01 01:46:31;;;;;;;12.37;8.23;;;;;;;-2.51;100.00;103274.88;4984161;28;20474;-66
2023/03/01 01:49:01;;;;;;;17.67;8.23;;;;;;;-2.51;100.00;103272.34;4983221;28;20506;-68
2023/03/01 01:51:38;;;;;;;10.80;8.07;;;;;;;-2.53;100.00;103263.78;4983971;28;20457;-68
2023/03/01 01:54:10;;;;;;;10.73;7.40;;;;;;;-2.56;100.00;103251.81;4982782;28;20550;-66
2023/03/01 01:56:39;;;;;;;14.63;7.87;;;;;;;-2.57;100.00;103256.66;4979601;28;20448;-67
2023/03/01 01:59:05;;;;;;;12.13;8.10;;;;;;;-2.59;100.00;103261.50;4977879;28;20438;-67
2023/03/01 02:01:31;;;;;;;12.90;8.27;;;;;;;-2.58;100.00;103260.75;4982632;28;20490;-67
2023/03/01 02:03:58;;;;;;;12.90;7.90;;;;;;;-2.62;100.00;103262.78;4984685;28;20263;-68
2023/03/01 02:06:36;;;;;;;11.23;6.80;;;;;;;-2.65;100.00;103275.88;4986867;28;20317;-67
2023/03/01 02:09:12;;;;;;;10.97;6.93;;;;;;;-2.67;100.00;103268.91;4982795;28;20451;-66
2023/03/01 02:11:37;;;;;;;10.03;7.50;;;;;;;-2.65;100.00;103274.97;4987600;28;20983;-67
2023/03/01 02:14:04;;;;;;;13.10;7.57;;;;;;;-2.64;100.00;103272.63;4986487;28;20482;-67
2023/03/01 02:16:30;;;;;;;10.20;7.00;;;;;;;-2.71;100.00;103266.78;4969710;28;20220;-67
2023/03/01 02:18:56;;;;;;;12.57;7.60;;;;;;;-2.75;100.00;103257.13;4987817;28;20450;-67
2023/03/01 02:21:30;;;;;;;9.73;6.50;;;;;;;-2.78;100.00;103266.81;4972418;28;20534;-68
2023/03/01 02:23:56;;;;;;;10.97;7.10;;;;;;;-2.77;100.00;103256.06;4991951;28;20967;-67
2023/03/01 02:26:41;;;;;;;10.60;7.27;;;;;;;-2.80;100.00;103250.72;4987890;28;20509;-67
2023/03/01 02:29:07;;;;;;;12.50;7.13;;;;;;;-2.80;100.00;103240.72;4990416;28;20790;-68
2023/03/01 02:31:41;;;;;;;11.67;6.97;;;;;;;-2.79;100.00;103245.00;4988466;28;20439;-67
2023/03/01 02:34:11;;;;;;;10.10;6.93;;;;;;;-2.77;100.00;103243.53;4991483;28;20202;-68
2023/03/01 02:36:45;;;;;;;11.03;6.80;;;;;;;-2.79;100.00;103245.91;4989365;28;20525;-68
2023/03/01 02:39:16;;;;;;;10.50;6.63;;;;;;;-2.80;100.00;103240.72;4990748;28;20787;-67
2023/03/01 02:41:47;;;;;;;10.13;5.73;;;;;;;-2.83;100.00;103251.28;4987096;28;20439;-68
2023/03/01 02:44:13;;;;;;;11.00;6.40;;;;;;;-2.87;100.00;103238.22;4990024;28;20446;-67
2023/03/01 02:47:02;;;;;;;10.00;6.90;;;;;;;-2.86;100.00;103250.94;4983872;28;20467;-68
2023/03/01 02:49:31;;;;;;;9.83;5.67;;;;;;;-2.89;100.00;103250.59;4996983;28;20193;-66
2023/03/01 02:52:41;;;;;;;8.40;5.50;;;;;;;-2.88;100.00;103252.41;4983441;28;21118;-68
2023/03/01 02:55:17;;;;;;;8.93;5.90;;;;;;;-2.95;100.00;103232.38;5003490;28;20825;-68
2023/03/01 02:57:45;;;;;;;10.37;6.43;;;;;;;-2.95;100.00;103241.53;4987749;28;20454;-68
2023/03/01 03:00:19;;;;;;;9.43;6.23;;;;;;;-2.98;100.00;103239.56;4985416;28;20447;-67
2023/03/01 03:02:46;;;;;;;8.80;5.53;;;;;;;-2.97;100.00;103237.94;4986108;28;20466;-66
2023/03/01 03:05:29;;;;;;;10.30;6.00;;;;;;;-3.00;100.00;103241.00;4986908;28;21086;-68
2023/03/01 03:07:59;;;;;;;8.57;5.37;;;;;;;-3.01;100.00;103231.72;4989966;28;20501;-67
2023/03/01 03:10:29;;;;;;;8.97;6.07;;;;;;;-2.98;100.00;103227.06;4987092;28;20458;-67
2023/03/01 03:12:59;;;;;;;9.23;5.87;;;;;;;-3.03;100.00;103225.63;4985596;28;20485;-68
2023/03/01 03:15:27;;;;;;;10.60;6.17;;;;;;;-3.03;100.00;103230.63;5000887;28;20452;-67
2023/03/01 03:17:57;;;;;;;10.27;5.93;;;;;;;-3.05;100.00;103228.69;4972776;28;21117;-67
2023/03/01 03:20:26;;;;;;;9.13;5.93;;;;;;;-3.01;100.00;103230.81;4990212;28;20455;-68
2023/03/01 03:22:54;;;;;;;8.40;5.63;;;;;;;-2.95;100.00;103224.00;4987602;28;20553;-65
2023/03/01 03:25:21;;;;;;;9.07;5.67;;;;;;;-2.91;100.00;103224.47;4987427;28;20844;-67
2023/03/01 03:27:49;;;;;;;10.20;5.77;;;;;;;-2.85;100.00;103225.16;4988205;28;20463;-68
2023/03/01 03:30:18;;;;;;;12.03;6.10;;;;;;;-2.76;100.00;103225.28;4990804;28;20443;-66
2023/03/01 03:32:51;;;;;;;10.43;5.87;;;;;;;-2.69;100.00;103223.63;4986997;28;20467;-66
2023/03/01 03:35:18;;;;;;;8.17;5.47;;;;;;;-2.71;100.00;103210.00;4985938;28;20541;-67
2023/03/01 03:38:02;;;;;;;9.33;5.93;;;;;;;-2.69;100.00;103202.66;4986850;28;20898;-67
2023/03/01 03:40:29;;;;;;;9.43;5.47;;;;;;;-2.60;100.00;103211.19;4984483;28;20458;-68
2023/03/01 03:42:54;;;;;;;10.20;6.13;;;;;;;-2.56;100.00;103210.81;4990829;28;20614;-68
2023/03/01 03:45:20;;;;;;;8.97;5.80;;;;;;;-2.54;100.00;103206.81;4986004;28;20562;-67
2023/03/01 03:47:45;;;;;;;11.13;5.47;;;;;;;-2.52;100.00;103206.28;4985529;28;20191;-68
2023/03/01 03:50:14;;;;;;;8.07;5.30;;;;;;;-2.46;100.00;103208.56;4990037;28;20200;-66
2023/03/01 03:52:40;;;;;;;10.80;5.47;;;;;;;-2.39;100.00;103209.38;4985039;28;20227;-67
2023/03/01 03:55:10;;;;;;;8.43;5.87;;;;;;;-2.37;100.00;103207.94;4983499;28;20467;-68
2023/03/01 03:57:40;;;;;;;7.00;5.20;;;;;;;-2.28;100.00;103206.44;4982426;28;20446;-67
2023/03/01 04:00:13;;;;;;;8.23;5.50;;;;;;;-2.21;100.00;103208.00;4985928;28;20440;-67
2023/03/01 04:02:40;;;;;;;8.27;5.70;;;;;;;-2.14;100.00;103211.31;4987100;28;20466;-66
2023/03/01 04:05:06;;;;;;;7.63;5.37;;;;;;;-2.08;100.00;103209.44;4990163;28;20530;-67
2023/03/01 04:07:32;;;;;;;10.67;5.17;;;;;;;-1.97;100.00;103203.94;4987525;28;20597;-67
2023/03/01 04:09:57;;;;;;;9.33;5.40;;;;;;;-1.89;100.00;103195.63;4990253;28;21004;-67
2023/03/01 04:12:22;;;;;;;7.83;5.30;;;;;;;-1.83;100.00;103203.78;4986921;28;20306;-66
2023/03/01 04:14:48;;;;;;;7.50;5.30;;;;;;;-1.80;100.00;103195.69;4986763;28;20223;-66
2023/03/01 04:17:14;;;;;;;7.80;5.50;;;;;;;-1.75;100.00;103197.09;4986535;28;20868;-67
2023/03/01 04:19:39;;;;;;;8.77;5.97;;;;;;;-1.71;100.00;103191.66;4989322;28;20196;-67
2023/03/01 04:22:09;;;;;;;9.13;5.67;;;;;;;-1.65;100.00;103192.31;4988149;28;20314;-66
2023/03/01 04:24:37;;;;;;;10.30;5.97;;;;;;;-1.60;100.00;103192.03;4988294;28;20205;-67
2023/03/01 04:27:03;;;;;;;8.40;5.67;;;;;;;-1.55;100.00;103187.50;4983463;28;20573;-68
2023/03/01 04:29:29;;;;;;;10.57;6.10;;;;;;;-1.53;100.00;103179.41;4984242;28;20550;-68
2023/03/01 04:31:54;;;;;;;9.10;5.87;;;;;;;-1.47;100.00;103180.03;4986882;28;20298;-68
2023/03/01 04:34:20;;;;;;;10.27;6.07;;;;;;;-1.41;100.00;103179.78;4989570;28;20599;-66
2023/03/01 04:36:45;;;;;;;7.93;5.73;;;;;;;-1.37;100.00;103179.38;4982242;28;20191;-67
2023/03/01 04:39:14;;;;;;;10.43;6.07;;;;;;;-1.33;100.00;103181.50;4986829;28;20192;-67
2023/03/01 04:41:40;;;;;;;9.83;6.30;;;;;;;-1.29;100.00;103176.06;4983947;28;20302;-66
2023/03/01 04:44:06;;;;;;;9.53;6.00;;;;;;;-1.24;100.00;103177.41;4986391;28;21021;-68
2023/03/01 04:46:31;;;;;;;8.10;5.93;;;;;;;-1.20;100.00;103177.88;4987684;28;20237;-66
2023/03/01 04:48:57;;;;;;;7.77;5.90;;;;;;;-1.13;100.00;103177.78;4985937;28;21015;-68
2023/03/01 04:51:23;;;;;;;8.67;6.03;;;;;;;-1.10;100.00;103172.19;4988238;28;20195;-67
2023/03/01 04:53:49;;;;;;;8.73;6.33;;;;;;;-1.05;100.00;103173.53;4986278;28;20243;-67
2023/03/01 04:56:15;;;;;;;6.60;4.80;;;;;;;-1.02;100.00;103174.75;4988869;28;20654;-66
2023/03/01 04:58:41;;;;;;;7.53;5.50;;;;;;;-0.97;100.00;103170.16;4986455;28;20226;-65
2023/03/01 05:01:18;;;;;;;7.20;5.73;;;;;;;-0.94;100.00;103167.97;4989516;28;20482;-67
2023/03/01 05:03:46;;;;;;;8.03;5.70;;;;;;;-0.88;100.00;103156.00;4988527;28;20215;-68
2023/03/01 05:06:12;;;;;;;10.27;7.23;;;;;;;-0.83;100.00;103162.44;4986792;28;21007;-67
2023/03/01 05:08:39;;;;;;;13.03;6.60;;;;;;;-0.77;100.00;103166.44;4986939;28;20462;-68
2023/03/01 05:11:05;;;;;;;9.23;6.20;;;;;;;-0.73;100.00;103162.63;4989688;28;20457;-67
2023/03/01 05:13:31;;;;;;;10.57;6.73;;;;;;;-0.70;100.00;103161.28;4987215;28;21198;-67
2023/03/01 05:15:59;;;;;;;9.03;5.90;;;;;;;-0.68;100.00;103174.03;4982281;28;20533;-65
2023/03/01 05:18:26;;;;;;;10.20;6.93;;;;;;;-0.62;100.00;103177.16;4983233;28;20448;-68
2023/03/01 05:20:55;;;;;;;9.30;6.43;;;;;;;-0.62;100.00;103173.03;4985857;28;20807;-66
2023/03/01 05:23:22;;;;;;;7.63;5.80;;;;;;;-0.60;100.00;103169.03;4987432;28;20506;-66
2023/03/01 05:25:48;;;;;;;9.53;6.60;;;;;;;-0.58;100.00;103172.59;4987032;28;20529;-67
2023/03/01 05:28:15;;;;;;;10.10;6.70;;;;;;;-0.55;100.00;103172.88;4987071;28;20815;-67
2023/03/01 05:30:41;;;;;;;12.67;6.70;;;;;;;-0.56;100.00;103165.19;4981968;28;20485;-67
2023/03/01 05:33:13;;;;;;;9.57;6.40;;;;;;;-0.55;100.00;103175.41;4984210;28;20471;-68
2023/03/01 05:35:43;;;;;;;10.93;6.63;;;;;;;-0.52;100.00;103172.31;4985153;28;20800;-68
2023/03/01 05:38:12;;;;;;;11.03;6.07;;;;;;;-0.53;100.00;103165.50;4988207;28;20505;-67
2023/03/01 05:40:39;;;;;;;10.77;6.13;;;;;;;-0.52;100.00;103164.75;4987412;28;20462;-66
2023/03/01 05:43:05;;;;;;;9.07;6.20;;;;;;;-0.49;100.00;103172.63;4988705;28;20458;-67
2023/03/01 05:45:34;;;;;;;11.63;5.80;;;;;;;-0.47;100.00;103171.13;4983447;28;20471;-67
2023/03/01 05:47:59;;;;;;;10.47;6.80;;;;;;;-0.46;100.00;103171.28;4983695;28;20193;-67
2023/03/01 05:50:28;;;;;;;8.43;5.97;;;;;;;-0.48;100.00;103169.38;4984735;28;20454;-67
2023/03/01 05:53:23;;;;;;;9.30;6.47;;;;;;;-0.43;100.00;103163.16;4987295;28;20673;-68
2023/03/01 05:55:49;;;;;;;10.77;6.80;;;;;;;-0.42;100.00;103154.88;4986782;28;20462;-67
2023/03/01 05:58:18;;;;;;;9.20;5.47;;;;;;;-0.48;100.00;103160.22;4984379;28;20451;-66
2023/03/01 06:00:46;;;;;;;7.70;5.60;;;;;;;-0.46;100.00;103162.88;4983512;28;20443;-67
2023/03/01 06:03:13;;;;;;;8.03;5.50;;;;;;;-0.42;100.00;103153.25;4985088;28;21002;-67
2023/03/01 06:05:40;;;;;;;6.97;4.87;;;;;;;-0.41;100.00;103156.69;4982045;28;20534;-66
2023/03/01 06:08:06;;;;;;;7.50;4.83;;;;;;;-0.41;100.00;103155.03;4987735;28;20474;-66
2023/03/01 06:10:32;;;;;;;9.07;5.70;;;;;;;-0.38;100.00;103154.44;4987128;28;20500;-67
2023/03/01 06:12:57;;;;;;;8.30;5.67;;;;;;;-0.30;100.00;103164.56;4985153;28;20486;-65
2023/03/01 06:15:24;;;;;;;10.27;5.00;;;;;;;-0.30;100.00;103162.03;4984949;28;20195;-68
2023/03/01 06:17:50;;;;;;;7.53;4.93;;;;;;;-0.37;100.00;103157.13;4984975;28;20207;-67
2023/03/01 06:20:20;;;;;;;11.10;5.27;;;;;;;-0.30;100.00;103154.50;4984296;28;20878;-68
2023/03/01 06:22:47;;;;;;;7.43;4.93;;;;;;;-0.26;100.00;103146.47;4984830;28;20472;-67
2023/03/01 06:25:15;;;;;;;6.43;4.50;;;;;;;-0.30;100.00;103141.00;4984071;28;20924;-68
2023/03/01 06:27:42;;;;;;;8.23;4.83;;;;;;;-0.26;100.00;103141.44;4987136;28;20803;-67
2023/03/01 06:30:10;;;;;;;8.37;5.60;;;;;;;-0.21;100.00;103137.78;4985798;28;20205;-68
2023/03/01 06:32:36;;;;;;;8.73;5.60;;;;;;;-0.18;100.00;103142.22;4985541;28;20536;-67
2023/03/01 06:35:01;;;;;;;7.20;5.23;;;;;;;-0.17;100.00;103147.38;4988147;28;20196;-68
2023/03/01 06:37:27;;;;;;;7.87;4.80;;;;;;;-0.18;100.00;103143.09;4987434;28;20846;-67
2023/03/01 06:39:52;;;;;;;9.23;5.67;;;;;;;-0.17;100.00;103142.34;4987666;28;20289;-68
2023/03/01 06:42:18;;;;;;;5.83;4.43;;;;;;;-0.10;100.00;103143.84;4986610;28;20628;-66
2023/03/01 06:44:44;;;;;;;7.30;5.20;;;;;;;-0.07;100.00;103147.59;4986686;28;20200;-67
2023/03/01 06:47:09;;;;;;;10.07;6.57;;;;;;;-0.04;100.00;103144.47;4984900;28;20216;-68
2023/03/01 06:49:35;;;;;;;9.03;6.30;;;;;;;0.01;100.00;103148.31;4983981;28;20443;-69
2023/03/01 06:52:00;;;;;;;7.93;6.20;;;;;;;0.07;100.00;103143.88;4986846;28;20215;-67
2023/03/01 06:54:26;;;;;;;9.83;5.87;;;;;;;0.08;100.00;103148.16;4990214;28;20257;-67
2023/03/01 06:56:52;;;;;;;6.40;5.00;;;;;;;0.13;100.00;103152.03;4991594;28;20211;-66
2023/03/01 06:59:18;;;;;;;6.93;5.10;;;;;;;0.15;100.00;103148.03;4986648;28;20279;-67
2023/03/01 07:01:44;;;;;;;6.80;5.27;;;;;;;0.18;100.00;103153.34;4989236;28;20446;-67
2023/03/01 07:04:10;;;;;;;8.60;5.33;;;;;;;0.22;100.00;103152.91;4989568;28;20784;-67
2023/03/01 07:06:36;;;;;;;10.03;4.90;;;;;;;0.08;100.00;103151.59;4989731;28;20207;-67
2023/03/01 07:09:01;;;;;;;8.07;5.03;;;;;;;0.04;100.00;103154.53;4990464;28;20525;-67
2023/03/01 07:11:27;;;;;;;8.00;5.10;;;;;;;0.06;100.00;103152.19;4991610;28;20199;-67
2023/03/01 07:13:52;;;;;;;10.97;4.80;;;;;;;0.14;100.00;103153.81;4990659;28;20302;-67
2023/03/01 07:16:20;;;;;;;7.13;5.03;;;;;;;0.14;100.00;103146.28;4986460;28;20279;-67
2023/03/01 07:18:45;;;;;;;5.97;4.60;;;;;;;0.18;100.00;103143.28;4991545;28;20692;-67
2023/03/01 07:21:13;;;;;;;6.93;4.40;;;;;;;0.19;100.00;103137.53;4988306;28;20219;-67
2023/03/01 07:23:38;;;;;;;9.37;4.93;;;;;;;0.20;100.00;103137.66;4989521;28;20224;-68
2023/03/01 07:26:04;;;;;;;7.83;4.53;;;;;;;0.22;100.00;103141.97;4977375;28;20478;-67
2023/03/01 07:28:30;;;;;;;7.23;4.60;;;;;;;0.22;100.00;103145.38;4990737;28;20207;-65
2023/03/01 07:31:01;;;;;;;6.87;4.13;;;;;;;0.21;100.00;103153.66;4990198;28;20200;-68
2023/03/01 07:33:27;;;;;;;10.00;4.40;;;;;;;0.28;100.00;103152.63;4990597;28;20485;-67
2023/03/01 07:36:01;;;;;;;6.77;4.40;;;;;;;0.13;100.00;103141.94;4991306;28;20455;-67
2023/03/01 07:38:27;;;;;;;7.73;4.77;;;;;;;0.26;100.00;103139.88;5002246;28;20193;-67
2023/03/01 07:40:53;;;;;;;7.10;4.43;;;;;;;0.32;100.00;103143.00;4993087;28;20465;-68
2023/03/01 07:43:20;;;;;;;6.50;4.30;;;;;;;0.40;100.00;103136.19;4987075;28;20212;-67
2023/03/01 07:45:46;;;;;;;6.93;4.10;;;;;;;0.44;100.00;103139.13;4991397;28;20278;-68
2023/03/01 07:48:11;;;;;;;5.77;4.43;;;;;;;0.41;100.00;103135.44;4990396;28;20275;-68
2023/03/01 07:50:36;;;;;;;6.60;4.43;;;;;;;0.46;100.00;103136.78;4990927;28;20290;-67
2023/03/01 07:53:02;;;;;;;9.00;4.03;;;;;;;0.52;100.00;103134.09;4989185;28;20309;-68
2023/03/01 07:55:28;;;;;;;8.27;4.07;;;;;;;0.57;100.00;103135.41;4991381;28;20506;-68
2023/03/01 07:57:53;;;;;;;4.50;3.83;;;;;;;0.67;100.00;103137.19;4989546;28;20210;-67
2023/03/01 08:00:19;;;;;;;6.37;3.90;;;;;;;0.76;100.00;103138.06;4987233;28;20195;-66
2023/03/01 08:02:45;;;;;;;6.87;4.13;;;;;;;0.82;100.00;103132.72;4988383;28;20215;-67
2023/03/01 08:05:10;;;;;;;5.60;3.90;;;;;;;0.90;100.00;103130.16;4989017;28;20238;-68
2023/03/01 08:07:36;;;;;;;8.47;4.50;;;;;;;0.96;100.00;103134.91;4987634;28;20270;-67
2023/03/01 08:10:01;;;;;;;5.93;4.30;;;;;;;0.98;100.00;103148.53;4988532;28;20557;-67
2023/03/01 08:12:27;;;;;;;7.20;4.23;;;;;;;1.00;100.00;103157.16;4990531;28;20224;-66
2023/03/01 08:14:53;;;;;;;6.77;4.53;;;;;;;1.00;100.00;103154.63;4989691;28;20631;-66
2023/03/01 08:17:19;;;;;;;6.20;4.43;;;;;;;1.06;100.00;103145.97;4988234;28;20196;-67
2023/03/01 08:19:45;;;;;;;8.73;4.63;;;;;;;1.01;100.00;103152.22;4989629;28;20191;-68
2023/03/01 08:22:10;;;;;;;6.57;4.10;;;;;;;1.22;100.00;103149.19;4990325;28;20216;-67
2023/03/01 08:24:36;;;;;;;6.90;4.53;;;;;;;1.37;100.00;103147.22;4990748;28;20567;-68
2023/03/01 08:27:02;;;;;;;8.73;4.63;;;;;;;1.55;100.00;103142.22;4989465;28;20707;-68
2023/03/01 08:29:29;;;;;;;5.33;4.00;;;;;;;1.69;100.00;103131.75;4989071;28;20203;-67
2023/03/01 08:31:55;;;;;;;5.70;3.50;;;;;;;1.86;100.00;103115.59;4990012;28;20703;-67
2023/03/01 08:34:20;;;;;;;6.40;4.17;;;;;;;2.04;100.00;103117.25;4988427;28;20183;-67
2023/03/01 08:36:46;;;;;;;9.33;5.43;;;;;;;2.35;100.00;103104.94;4989133;28;20810;-67
2023/03/01 08:39:14;;;;;;;9.23;5.00;;;;;;;2.57;100.00;103100.16;4989432;28;20200;-67
2023/03/01 08:41:41;;;;;;;6.77;4.00;;;;;;;2.86;100.00;103071.56;4986904;28;20195;-67
2023/03/01 08:44:07;;;;;;;5.13;3.80;;;;;;;3.04;100.00;103047.78;4987450;28;20195;-68
2023/03/01 08:46:38;;;;;;;4.10;3.33;;;;;;;3.36;100.00;103010.88;4989598;28;20215;-66
2023/03/01 08:49:06;;;;;;;5.97;4.27;;;;;;;3.83;100.00;102965.00;4984423;28;20807;-68
2023/03/01 08:51:36;;;;;;;5.53;4.20;;;;;;;4.66;100.00;102924.28;4987698;28;20283;-67
2023/03/01 08:54:21;;;;;;;5.77;3.77;;;;;;;4.48;100.00;102876.34;4986500;28;20574;-68
2023/03/01 08:56:47;;;;;;;9.53;4.60;;;;;;;4.68;100.00;102872.00;4986501;28;20222;-68
2023/03/01 08:59:14;;;;;;;9.73;5.93;;;;;;;5.29;100.00;102819.03;4988508;28;20701;-69
2023/03/01 09:01:40;;;;;;;39.23;18.37;;;;;;;5.80;100.00;102787.16;4988237;28;20226;-68
2023/03/01 09:04:06;;;;;;;22.67;10.57;;;;;;;5.72;100.00;102776.44;4988723;28;20222;-68
2023/03/01 09:06:33;;;;;;;9.77;6.07;;;;;;;5.90;100.00;102746.34;4987607;28;20680;-70
2023/03/01 09:09:00;;;;;;;30.53;13.97;;;;;;;6.85;100.00;102687.44;4985380;28;20674;-69
2023/03/01 09:11:25;;;;;;;18.27;9.57;;;;;;;7.55;100.00;102601.88;4968006;28;20806;-68
2023/03/01 09:13:51;;;;;;;50.83;22.43;;;;;;;7.95;100.00;102548.19;4979238;28;20239;-70
2023/03/01 09:16:19;;;;;;;24.90;12.90;;;;;;;8.25;100.00;102513.34;4978795;28;20183;-69
2023/03/01 09:18:49;;;;;;;10.93;6.53;;;;;;;9.61;96.51;102408.16;4989166;28;20241;-69
2023/03/01 09:21:17;;;;;;;5.77;5.17;;;;;;;12.91;67.71;102107.72;4985228;28;20222;-70
2023/03/01 09:23:45;;;;;;;6.77;5.37;;;;;;;15.23;49.87;102458.78;4973335;28;20220;-67
2023/03/01 09:26:16;;;;;;;8.27;5.17;;;;;;;16.56;43.88;102569.84;4979462;28;20630;-68
2023/03/01 09:28:42;;;;;;;9.00;5.83;;;;;;;17.68;40.16;102638.72;4995135;28;20225;-69
2023/03/01 09:31:08;;;;;;;7.60;5.63;;;;;;;18.37;38.20;102698.84;4991518;28;20638;-69
2023/03/01 09:33:34;;;;;;;8.87;5.93;;;;;;;18.21;37.68;102739.16;4992799;28;20211;-67
2023/03/01 09:36:02;;;;;;;7.73;5.90;;;;;;;18.86;36.93;102754.19;4979375;28;20226;-68
2023/03/01 09:38:28;;;;;;;7.50;5.40;;;;;;;18.88;36.70;102762.84;4985569;28;20192;-68
2023/03/01 09:40:54;;;;;;;7.20;6.03;;;;;;;18.95;35.59;102772.50;4969585;28;20206;-68
2023/03/01 09:43:45;;;;;;;9.90;6.60;;;;;;;20.01;34.35;102808.72;4983138;28;20615;-69
2023/03/01 09:46:16;;;;;;;13.10;7.00;;;;;;;17.51;36.84;102859.47;4982318;28;20247;-68
2023/03/01 09:48:51;;;;;;;11.33;7.30;;;;;;;14.14;43.87;102935.66;4987360;28;20199;-67
2023/03/01 09:51:26;;;;;;;10.50;7.63;;;;;;;13.36;48.22;102975.34;4983697;28;20226;-68
2023/03/01 09:53:54;;;;;;;14.03;7.53;;;;;;;13.52;48.36;102968.34;4984665;28;20317;-67
2023/03/01 09:56:24;;;;;;;10.97;7.53;;;;;;;15.13;45.26;102939.38;4980134;28;20189;-68
2023/03/01 09:59:02;;;;;;;8.00;6.43;;;;;;;16.58;42.27;102909.63;4989340;28;20192;-69
2023/03/01 10:01:35;;;;;;;11.07;7.03;;;;;;;16.12;42.67;102909.09;4968799;28;20219;-69
2023/03/01 10:04:10;;;;;;;9.57;7.73;;;;;;;19.64;36.25;102840.28;4979564;28;20206;-69
2023/03/01 10:06:36;;;;;;;12.67;8.77;;;;;;;19.98;34.94;102839.88;4985011;28;20223;-70
2023/03/01 10:09:21;;;;;;;13.03;8.97;;;;;;;19.78;35.29;102847.44;4988084;28;20218;-68
2023/03/01 10:11:53;;;;;;;9.43;8.27;;;;;;;20.05;35.48;102847.81;4957929;28;20215;-69
2023/03/01 10:14:40;;;;;;;10.47;7.90;;;;;;;20.59;34.29;102838.06;4988361;28;20227;-68
2023/03/01 10:17:39;;;;;;;12.30;7.43;;;;;;;19.32;36.20;102870.09;4982400;28;20195;-70
2023/03/01 10:20:24;;;;;;;9.93;8.17;;;;;;;20.17;35.52;102855.78;4970295;28;20207;-72
2023/03/01 10:22:52;;;;;;;10.07;8.17;;;;;;;19.13;36.41;102861.13;4985103;28;20215;-73
2023/03/01 10:25:38;;;;;;;10.03;7.90;;;;;;;19.00;37.62;102877.34;4988859;28;20199;-70
2023/03/01 10:28:29;;;;;;;9.37;7.73;;;;;;;19.76;37.34;102874.28;4979092;28;20295;-69
2023/03/01 10:30:57;;;;;;;9.53;7.70;;;;;;;20.70;34.52;102844.25;4993167;28;20238;-73
2023/03/01 10:33:27;;;;;;;10.45;7.53;;;;;;;21.68;33.92;102835.53;4988087;28;20705;-72
2023/03/01 10:35:53;;;;;;;11.00;8.43;;;;;;;22.98;31.67;102825.56;4993463;28;20209;-72
2023/03/01 10:38:23;;;;;;;10.82;7.97;;;;;;;24.09;30.71;102830.63;4993705;28;20199;-72
2023/03/01 10:40:58;;;;;;;9.82;7.95;;;;;;;22.50;32.07;102847.25;4993568;28;20193;-71
2023/03/01 10:43:26;;;;;;;10.13;8.00;;;;;;;21.44;33.50;102866.66;4979951;28;20270;-71
2023/03/01 10:45:52;;;;;;;11.93;7.93;;;;;;;21.89;33.24;102856.53;4993914;28;20223;-71
2023/03/01 10:48:27;;;;;;;9.52;7.68;;;;;;;22.38;32.96;102856.75;4971586;28;20543;-70
2023/03/01 10:50:58;;;;;;;12.25;7.90;;;;;;;22.25;32.98;102848.03;4990927;28;20191;-70
2023/03/01 10:53:31;;;;;;;10.02;8.05;;;;;;;22.22;32.61;102845.38;4977290;28;20223;-71
2023/03/01 10:56:07;;;;;;;11.98;9.02;;;;;;;22.11;33.66;102860.16;4993690;28;20231;-70
2023/03/01 10:58:35;;;;;;;12.38;8.63;;;;;;;22.00;32.59;102848.75;4996418;28;20199;-69
2023/03/01 11:01:04;;;;;;;10.07;8.07;;;;;;;21.45;32.83;102857.09;4995481;28;20231;-69
2023/03/01 11:03:38;;;;;;;10.63;8.18;;;;;;;20.44;34.03;102869.13;4985788;28;20263;-69
2023/03/01 11:06:13;;;;;;;10.33;8.80;;;;;;;19.40;36.33;102897.97;4965938;28;20216;-68
2023/03/01 11:08:40;;;;;;;12.80;9.63;;;;;;;18.60;38.06;102916.38;4994475;28;20201;-69
2023/03/01 11:11:20;;;;;;;19.13;14.57;;;;;;;17.50;39.54;102922.50;4992596;28;20203;-68
2023/03/01 11:14:04;;;;;;;24.37;18.40;;;;;;;16.79;40.71;102933.53;4993950;28;20225;-67
2023/03/01 11:16:39;;;;;;;32.33;23.30;;;;;;;17.59;40.17;102920.13;5007172;28;20196;-69
2023/03/01 11:19:16;;;;;;;29.33;21.27;;;;;;;17.81;39.92;102912.00;4974735;28;20321;-70
2023/03/01 11:21:56;;;;;;;20.77;14.37;;;;;;;20.34;36.72;102885.50;4991821;28;20210;-69
2023/03/01 11:24:41;;;;;;;12.90;9.23;;;;;;;21.87;33.18;102847.84;4991610;28;20206;-69